Charleston Air Force Base-International Airport
KCHS : now visible

Airfield :











YOU CAN JOIN US ON...

 
LOGIN :

Register | Disclaimer

   EN    FR    IT 

 









Legend :    VFR   Marginal VFR   IFR   Intensive IFR   Very Intensive IFR
Visi :
Ceiling :
>= 8 km
>= 3000ft
5 to 8 km
1000 to 3000 ft
1500m to 5 km
500 to 1000 ft
800 to 1500m
200 to 500 ft
< 800m
< 200 ft
Symbols :   Thunderstorms  Fog  Heavy snow  Heavy precipitations  Wind > 20 kt






- Airport Elevation : 46 ft
- IATA code : CHS


KCHS - Charleston Air Force Base-International

CURRENT METAR :
  • 221244Z VRB05KT 2SM R15/5500VP6000FT -RA BR FEW008 SCT025 OVC040 22/20 A3017 RMK AO2 P0002 T02170200 $

EXPIRED METARs :
  • 221204Z 04009KT 3SM -RA BR FEW008 BKN035 OVC050 21/20 A3016 RMK AO2 P0001 T02110200 $
  • 221156Z 04011KT 1 1/2SM R15/5500VP6000FT RA BR SCT008 BKN033 OVC055 21/21 A3016 RMK AO2 RAB38 SLP211 P0001 60001 70001 T02110206 10222 20211 51010 $
  • 221056Z 05008KT 10SM SCT035 BKN050 22/21 A3015 RMK AO2 SLP208 T02170206 $
  • 220956Z 05007KT 10SM FEW037 BKN046 BKN055 22/21 A3014 RMK AO2 SLP204 T02170206 $

TAF KCHS
Valid from the 22 at 12:00 until the 23 at 12:00 UTC


221229Z 2212/2312 04007KT P6SM VCSH FEW015 BKN050
TEMPO 2212/2213 3SM -RA BKN035
FM221500 08009KT P6SM SCT030
FM230800 04003KT 6SM BR SCT020 BKN050
KZJX FIR / North America



MET'MAP, your aeronautical weather chart ! - Copyright ORBIFLY December 2007 - Disclaimer

ORBIFLY MET'MAP TEAM :

Programming & Development : Alexandra Zaïnal
Concept & original design : Baudouin d'Aumeries
Assistance for programming : Marc-Olivier Méhu
Technical & hardware support : Manuel Goepfert

Contact : metmap@orbifly.com




SOURCES & CREDITS :

   NOAA       Earth
Advisory